Time;durP1;ratioP1;P1;durP2;ratioP2;P2;SDS_P1;SDS_P2;PMS_P1;PMS_P2;Temp;Humidity;BMP_temperature;BMP_pressure;BME280_temperature;BME280_humidity;BME280_pressure;Samples;Min_cycle;Max_cycle;Signal;HPM_P1;HPM_P2
2023/05/04 00:00:26;;;;;;;12.00;11.00;;;;;;;12.95;60.59;95079.16;5047393;28;20249;-71
2023/05/04 00:02:52;;;;;;;12.68;11.57;;;;;;;12.96;60.81;95077.31;5032299;28;20260;-70
2023/05/04 00:05:17;;;;;;;13.38;12.02;;;;;;;13.05;60.95;95078.16;5035457;28;20267;-71
2023/05/04 00:07:43;;;;;;;12.40;11.20;;;;;;;13.06;60.82;95070.06;5024689;28;20299;-71
2023/05/04 00:10:09;;;;;;;12.65;11.65;;;;;;;13.02;61.45;95071.41;5033486;28;20250;-72
2023/05/04 00:12:34;;;;;;;12.60;11.50;;;;;;;13.06;61.95;95080.63;5031290;28;20298;-70
2023/05/04 00:14:59;;;;;;;12.13;11.02;;;;;;;13.09;61.78;95068.91;5028866;28;20221;-71
2023/05/04 00:17:25;;;;;;;13.23;11.38;;;;;;;13.11;62.69;95073.03;5034636;28;20214;-71
2023/05/04 00:19:50;;;;;;;12.48;11.27;;;;;;;13.05;62.58;95071.06;5035000;28;20220;-71
2023/05/04 00:22:16;;;;;;;12.40;11.27;;;;;;;13.04;62.40;95082.59;5029061;28;20214;-71
2023/05/04 00:24:43;;;;;;;12.60;11.43;;;;;;;13.00;62.47;95076.84;5029975;28;20224;-71
2023/05/04 00:27:09;;;;;;;12.85;11.70;;;;;;;13.07;62.45;95081.44;5024914;28;20226;-70
2023/05/04 00:29:34;;;;;;;12.55;11.30;;;;;;;13.05;62.68;95076.34;5031402;28;20221;-71
2023/05/04 00:32:00;;;;;;;13.15;11.95;;;;;;;12.99;62.66;95080.47;5027060;28;20229;-71
2023/05/04 00:34:26;;;;;;;12.52;11.35;;;;;;;12.98;62.65;95083.28;5035904;28;20190;-71
2023/05/04 00:36:51;;;;;;;13.32;12.02;;;;;;;12.97;62.44;95077.16;5034859;28;20215;-71
2023/05/04 00:39:17;;;;;;;14.35;12.88;;;;;;;12.93;62.48;95075.00;5027051;28;20213;-71
2023/05/04 00:41:44;;;;;;;14.38;12.95;;;;;;;12.86;62.64;95074.03;5036204;28;20213;-71
2023/05/04 00:44:10;;;;;;;14.23;12.88;;;;;;;12.84;62.91;95076.84;5034123;28;20232;-70
2023/05/04 00:46:36;;;;;;;14.63;13.27;;;;;;;12.73;63.13;95079.81;5034398;28;20238;-71
2023/05/04 00:49:02;;;;;;;15.88;14.52;;;;;;;12.80;62.95;95089.53;5033413;28;20186;-71
2023/05/04 00:51:29;;;;;;;15.20;13.77;;;;;;;12.78;63.00;95086.22;5034002;28;20217;-71
2023/05/04 00:53:56;;;;;;;14.75;13.40;;;;;;;12.82;62.94;95075.34;5043627;28;20285;-71
2023/05/04 00:56:23;;;;;;;15.52;13.93;;;;;;;12.82;63.12;95075.34;5034453;28;20210;-71
2023/05/04 00:58:53;;;;;;;15.95;14.57;;;;;;;12.65;63.64;95077.97;5025404;28;20237;-70
2023/05/04 01:01:20;;;;;;;17.38;15.95;;;;;;;12.73;63.49;95074.53;5030869;28;20197;-71
2023/05/04 01:03:50;;;;;;;16.20;14.70;;;;;;;12.77;63.19;95068.72;5044278;28;20237;-71
2023/05/04 01:06:51;;;;;;;17.55;16.00;;;;;;;12.87;63.17;95067.75;5025595;28;20218;-71
2023/05/04 01:09:26;;;;;;;17.83;16.42;;;;;;;12.67;63.83;95065.44;5028151;28;20270;-71
2023/05/04 01:11:59;;;;;;;16.67;15.18;;;;;;;12.49;64.72;95065.59;5035389;28;20212;-71
2023/05/04 01:14:26;;;;;;;18.40;16.85;;;;;;;12.49;64.68;95059.50;5031342;28;20225;-71
2023/05/04 01:16:57;;;;;;;18.55;16.90;;;;;;;12.50;63.96;95064.59;5034597;28;20213;-71
2023/05/04 01:19:26;;;;;;;18.02;16.52;;;;;;;12.49;64.20;95072.69;5028735;28;20221;-70
2023/05/04 01:21:51;;;;;;;17.98;16.30;;;;;;;12.58;63.92;95063.78;5034772;28;20182;-70
2023/05/04 01:24:17;;;;;;;16.83;15.18;;;;;;;12.47;63.96;95061.47;5028992;28;20230;-71
2023/05/04 01:26:45;;;;;;;16.40;15.00;;;;;;;12.58;63.54;95050.59;5022641;28;20293;-70
2023/05/04 01:29:17;;;;;;;17.48;15.98;;;;;;;12.56;63.29;95052.56;5022973;28;20224;-71
2023/05/04 01:31:44;;;;;;;16.80;15.25;;;;;;;12.69;63.25;95052.06;5025651;28;20218;-71
2023/05/04 01:34:11;;;;;;;17.17;15.68;;;;;;;12.55;63.53;95053.56;5029221;28;20225;-70
2023/05/04 01:36:38;;;;;;;16.77;15.30;;;;;;;12.63;62.87;95055.38;5027274;28;20185;-68
2023/05/04 01:39:04;;;;;;;16.88;15.38;;;;;;;12.70;62.95;95054.56;5039670;28;20267;-68
2023/05/04 01:41:29;;;;;;;17.70;15.30;;;;;;;12.66;63.17;95047.13;5033586;28;20260;-68
2023/05/04 01:43:56;;;;;;;16.55;15.00;;;;;;;12.67;62.98;95041.72;5032100;28;20293;-68
2023/05/04 01:46:21;;;;;;;17.02;15.50;;;;;;;12.72;63.05;95031.50;5033019;28;20183;-68
2023/05/04 01:48:47;;;;;;;18.10;16.40;;;;;;;12.78;62.90;95041.38;5031582;28;20189;-69
2023/05/04 01:51:12;;;;;;;17.08;15.50;;;;;;;12.79;62.74;95047.47;5032524;28;20309;-68
2023/05/04 01:53:37;;;;;;;17.63;16.02;;;;;;;12.76;62.33;95037.25;5025127;28;20214;-67
2023/05/04 01:56:03;;;;;;;18.02;16.23;;;;;;;12.73;62.73;95037.59;5019495;28;20225;-68
2023/05/04 01:58:28;;;;;;;16.13;14.75;;;;;;;12.67;62.50;95033.78;5024703;28;20288;-68
2023/05/04 02:00:54;;;;;;;16.08;14.50;;;;;;;12.69;62.20;95037.06;5032705;28;20183;-67
2023/05/04 02:03:20;;;;;;;15.73;14.32;;;;;;;12.68;62.12;95038.06;5032322;28;20505;-68
2023/05/04 02:05:45;;;;;;;15.77;14.45;;;;;;;12.73;62.08;95032.31;5020021;28;20225;-67
2023/05/04 02:08:11;;;;;;;16.95;15.25;;;;;;;12.66;62.46;95032.13;5025231;28;20237;-68
2023/05/04 02:10:36;;;;;;;15.82;14.32;;;;;;;12.66;62.09;95029.50;5035481;28;20217;-68
2023/05/04 02:13:02;;;;;;;14.73;13.43;;;;;;;12.65;62.05;95033.13;5031437;28;20186;-68
2023/05/04 02:15:27;;;;;;;11.85;10.73;;;;;;;12.58;61.50;95035.56;5032664;28;20225;-68
2023/05/04 02:17:53;;;;;;;13.27;12.02;;;;;;;12.59;61.43;95036.44;5029624;28;20220;-68
2023/05/04 02:20:18;;;;;;;11.98;10.82;;;;;;;12.59;60.83;95046.97;5032393;28;20220;-68
2023/05/04 02:22:44;;;;;;;12.25;11.10;;;;;;;12.60;60.89;95045.16;5031702;28;20296;-68
2023/05/04 02:25:09;;;;;;;11.60;10.55;;;;;;;12.66;60.75;95045.31;5023646;28;20301;-68
2023/05/04 02:27:35;;;;;;;13.02;11.82;;;;;;;12.68;60.85;95048.63;5032435;28;20186;-68
2023/05/04 02:30:00;;;;;;;12.23;11.18;;;;;;;12.67;60.76;95049.63;5030054;28;20740;-68
2023/05/04 02:32:26;;;;;;;12.38;11.15;;;;;;;12.75;60.98;95051.41;5039056;28;20232;-68
2023/05/04 02:34:52;;;;;;;12.68;10.35;;;;;;;12.68;60.74;95048.63;5035828;28;20213;-68
2023/05/04 02:37:18;;;;;;;10.48;9.43;;;;;;;12.55;60.84;95051.72;5035388;28;20193;-68
2023/05/04 02:39:44;;;;;;;10.68;9.60;;;;;;;12.49;61.00;95057.66;5032676;28;20196;-67
2023/05/04 02:42:09;;;;;;;10.18;9.25;;;;;;;12.53;61.17;95051.06;5031626;28;20213;-67
2023/05/04 02:44:35;;;;;;;10.60;9.68;;;;;;;12.39;62.09;95041.16;5015354;28;20336;-69
2023/05/04 02:47:01;;;;;;;12.57;10.27;;;;;;;12.40;62.61;95044.63;5027504;28;20221;-70
2023/05/04 02:49:26;;;;;;;10.82;9.70;;;;;;;12.32;63.20;95051.56;5026236;28;20263;-70
2023/05/04 02:51:52;;;;;;;10.60;9.50;;;;;;;12.24;63.27;95037.50;5027591;28;20185;-71
2023/05/04 02:54:17;;;;;;;10.35;9.45;;;;;;;12.24;63.40;95038.34;5029946;28;20276;-70
2023/05/04 02:56:42;;;;;;;10.38;9.48;;;;;;;12.27;63.37;95043.28;5023613;28;20228;-70
2023/05/04 02:59:08;;;;;;;10.20;9.20;;;;;;;12.38;63.23;95047.44;5039290;28;20232;-70
2023/05/04 03:01:33;;;;;;;10.65;9.77;;;;;;;12.32;63.15;95045.44;5038420;28;20307;-70
2023/05/04 03:03:59;;;;;;;11.18;10.18;;;;;;;12.25;63.31;95041.81;5032745;28;20262;-70
2023/05/04 03:06:24;;;;;;;9.73;8.82;;;;;;;12.25;63.03;95050.53;5035594;28;20213;-72
2023/05/04 03:08:49;;;;;;;10.00;8.98;;;;;;;12.27;63.09;95050.34;5031227;28;20602;-70
2023/05/04 03:11:15;;;;;;;8.57;7.85;;;;;;;12.27;63.06;95050.34;5031592;28;20247;-71
2023/05/04 03:13:41;;;;;;;8.77;8.05;;;;;;;12.21;63.07;95048.38;5040035;28;20226;-70
2023/05/04 03:16:06;;;;;;;9.88;8.52;;;;;;;12.19;63.23;95053.81;5028506;28;20460;-70
2023/05/04 03:18:32;;;;;;;9.38;8.48;;;;;;;12.20;64.03;95052.81;5031931;28;20221;-70
2023/05/04 03:20:57;;;;;;;9.20;8.40;;;;;;;12.20;64.04;95055.47;5032905;28;20218;-70
2023/05/04 03:23:23;;;;;;;8.80;7.90;;;;;;;12.11;64.76;95057.25;5045886;28;20228;-72
2023/05/04 03:25:48;;;;;;;7.97;7.28;;;;;;;12.04;65.00;95064.13;5035639;28;20255;-70
2023/05/04 03:28:14;;;;;;;9.10;8.18;;;;;;;12.01;65.20;95058.38;5033831;28;20190;-68
2023/05/04 03:30:39;;;;;;;7.82;7.13;;;;;;;12.06;65.34;95053.44;5034420;28;20259;-69
2023/05/04 03:33:05;;;;;;;8.55;7.80;;;;;;;12.03;65.69;95056.38;5031121;28;20221;-70
2023/05/04 03:35:30;;;;;;;8.35;7.47;;;;;;;12.12;65.78;95063.34;5030585;28;20263;-69
2023/05/04 03:37:56;;;;;;;8.13;7.38;;;;;;;12.09;66.22;95072.41;5024801;28;20271;-70
2023/05/04 03:40:23;;;;;;;8.68;7.88;;;;;;;11.99;66.23;95062.97;5035273;28;20264;-68
2023/05/04 03:42:50;;;;;;;8.68;7.90;;;;;;;12.08;66.52;95077.81;5051564;28;20173;-70
2023/05/04 03:45:15;;;;;;;9.13;8.25;;;;;;;12.03;66.73;95072.19;5027370;28;20329;-69
2023/05/04 03:47:40;;;;;;;9.57;8.77;;;;;;;12.04;66.95;95079.94;5050597;28;20222;-70
2023/05/04 03:50:06;;;;;;;8.77;8.07;;;;;;;12.10;66.36;95081.94;5032440;28;20221;-69
2023/05/04 03:52:32;;;;;;;10.45;8.70;;;;;;;12.02;66.86;95078.47;5033876;28;20229;-69
2023/05/04 03:54:57;;;;;;;9.55;8.65;;;;;;;12.01;67.23;95085.53;5032361;28;20235;-69
2023/05/04 03:57:23;;;;;;;10.32;9.45;;;;;;;11.97;67.76;95093.91;5035282;28;20312;-69
2023/05/04 03:59:49;;;;;;;10.18;9.27;;;;;;;12.02;67.62;95096.91;5046584;28;20228;-69
2023/05/04 04:02:15;;;;;;;9.73;8.93;;;;;;;12.06;67.96;95095.63;5032523;28;20241;-72
2023/05/04 04:04:41;;;;;;;9.55;8.75;;;;;;;12.04;67.45;95100.22;5041322;28;20308;-71
2023/05/04 04:07:07;;;;;;;9.75;8.85;;;;;;;12.06;67.20;95098.25;5030528;28;20229;-71
2023/05/04 04:09:32;;;;;;;9.82;8.98;;;;;;;12.05;67.50;95102.69;5034902;28;20186;-72
2023/05/04 04:11:57;;;;;;;9.57;8.77;;;;;;;12.00;67.73;95099.72;5032831;28;20222;-71
2023/05/04 04:14:23;;;;;;;8.70;7.90;;;;;;;12.13;66.82;95101.88;5047578;28;20213;-69
2023/05/04 04:16:48;;;;;;;9.27;8.48;;;;;;;12.05;67.30;95097.41;5024512;28;20217;-70
2023/05/04 04:19:14;;;;;;;9.85;9.05;;;;;;;12.05;67.61;95096.59;5032021;28;20201;-71
2023/05/04 04:21:39;;;;;;;10.38;9.23;;;;;;;12.08;67.65;95101.53;5031076;28;20190;-71
2023/05/04 04:24:05;;;;;;;9.70;8.80;;;;;;;12.15;67.64;95092.00;5030655;28;20237;-71
2023/05/04 04:26:31;;;;;;;9.95;8.95;;;;;;;12.11;67.94;95098.59;5029523;28;20238;-72
2023/05/04 04:28:56;;;;;;;11.15;10.02;;;;;;;12.13;67.48;95104.53;5042057;28;20214;-72
2023/05/04 04:31:22;;;;;;;9.48;8.43;;;;;;;12.11;67.14;95099.44;5026974;28;20214;-70
2023/05/04 04:33:50;;;;;;;8.48;7.68;;;;;;;12.18;67.72;95104.06;5037157;28;20267;-70
2023/05/04 04:36:17;;;;;;;8.82;8.13;;;;;;;12.18;67.23;95110.16;5030026;28;20209;-72
2023/05/04 04:38:42;;;;;;;8.32;7.53;;;;;;;12.18;67.64;95110.16;5032072;28;20217;-71
2023/05/04 04:41:08;;;;;;;8.65;7.85;;;;;;;12.12;67.53;95110.78;5029404;28;20229;-72
2023/05/04 04:43:34;;;;;;;8.30;7.68;;;;;;;12.12;67.59;95110.78;5030682;28;20225;-72
2023/05/04 04:46:00;;;;;;;8.95;7.95;;;;;;;12.09;67.88;95114.56;5032236;28;20182;-71
2023/05/04 04:48:25;;;;;;;9.57;7.90;;;;;;;12.08;67.70;95112.06;5036994;28;20221;-70
2023/05/04 04:50:51;;;;;;;7.82;7.13;;;;;;;12.14;67.57;95112.28;5033849;28;20218;-70
2023/05/04 04:53:17;;;;;;;8.32;7.53;;;;;;;12.01;67.91;95117.16;5039083;28;20214;-70
2023/05/04 04:55:42;;;;;;;7.90;7.20;;;;;;;12.05;68.11;95121.13;5033771;28;20222;-70
2023/05/04 04:58:08;;;;;;;8.55;7.78;;;;;;;12.03;68.49;95120.47;5042684;28;20249;-70
2023/05/04 05:00:34;;;;;;;7.60;6.90;;;;;;;12.01;68.38;95124.25;5035267;28;20186;-70
2023/05/04 05:03:00;;;;;;;8.65;7.88;;;;;;;12.07;68.37;95120.97;5043245;28;20229;-70
2023/05/04 05:05:26;;;;;;;9.20;7.78;;;;;;;12.06;68.31;95129.88;5032411;28;20245;-70
2023/05/04 05:07:51;;;;;;;7.85;7.15;;;;;;;12.08;68.62;95128.75;5032880;28;20225;-70
2023/05/04 05:10:17;;;;;;;8.75;7.55;;;;;;;12.01;68.77;95134.81;5043363;28;20188;-70
2023/05/04 05:12:43;;;;;;;8.27;7.55;;;;;;;11.90;69.52;95141.16;5034268;28;20202;-70
2023/05/04 05:15:09;;;;;;;7.88;7.18;;;;;;;12.04;69.17;95131.84;5032365;28;20222;-70
2023/05/04 05:17:36;;;;;;;8.52;7.70;;;;;;;12.08;69.36;95143.72;5034362;28;20225;-70
2023/05/04 05:20:04;;;;;;;9.32;7.90;;;;;;;12.12;68.71;95134.50;5021450;28;20209;-70
2023/05/04 05:22:30;;;;;;;8.32;7.63;;;;;;;12.08;68.82;95134.00;5021235;28;20214;-70
2023/05/04 05:24:55;;;;;;;8.80;8.00;;;;;;;12.06;69.30;95148.34;5032451;28;20206;-70
2023/05/04 05:27:21;;;;;;;8.75;7.85;;;;;;;12.03;69.47;95140.72;5029721;28;20240;-70
2023/05/04 05:29:46;;;;;;;9.10;8.25;;;;;;;12.03;69.25;95140.72;5029289;28;20213;-70
2023/05/04 05:32:12;;;;;;;10.15;8.82;;;;;;;12.01;69.66;95132.16;5032022;28;20214;-70
2023/05/04 05:34:37;;;;;;;10.05;8.73;;;;;;;12.11;69.88;95138.97;5027230;28;20225;-70
2023/05/04 05:37:04;;;;;;;9.68;8.77;;;;;;;12.09;69.19;95135.66;5035027;28;20242;-70
2023/05/04 05:39:29;;;;;;;9.52;8.60;;;;;;;12.14;69.25;95143.09;5028843;28;20214;-70
2023/05/04 05:41:57;;;;;;;9.43;8.27;;;;;;;12.12;69.36;95152.97;5028234;28;20224;-70
2023/05/04 05:44:22;;;;;;;9.50;8.60;;;;;;;12.15;69.63;95144.72;5032157;28;20251;-70
2023/05/04 05:46:48;;;;;;;8.82;7.93;;;;;;;12.09;69.70;95142.75;5034511;28;20217;-70
2023/05/04 05:49:13;;;;;;;9.15;8.27;;;;;;;12.26;69.21;95146.25;5032481;28;20193;-70
2023/05/04 05:51:39;;;;;;;8.55;7.25;;;;;;;12.17;69.22;95142.78;5033845;28;20185;-70
2023/05/04 05:54:04;;;;;;;9.65;8.65;;;;;;;12.29;69.74;95151.22;5031995;28;20217;-70
2023/05/04 05:56:30;;;;;;;11.93;8.90;;;;;;;12.43;69.08;95148.00;5018779;28;20218;-70
2023/05/04 05:58:55;;;;;;;9.93;8.93;;;;;;;12.35;69.48;95151.41;5033777;28;20309;-70
2023/05/04 06:01:21;;;;;;;10.40;8.60;;;;;;;12.54;68.75;95157.41;5033512;28;20268;-70
2023/05/04 06:03:46;;;;;;;9.77;8.80;;;;;;;12.51;69.12;95149.81;5039316;28;20210;-70
2023/05/04 06:06:12;;;;;;;9.98;7.93;;;;;;;12.57;68.69;95149.19;5028772;28;20221;-70
2023/05/04 06:08:37;;;;;;;9.63;7.70;;;;;;;12.77;67.26;95155.00;5023265;28;20283;-70
2023/05/04 06:11:03;;;;;;;7.07;6.38;;;;;;;12.89;66.33;95158.16;5028340;28;20236;-70
2023/05/04 06:13:29;;;;;;;7.13;5.80;;;;;;;13.11;65.73;95167.25;5027853;28;20210;-70
2023/05/04 06:15:54;;;;;;;10.55;6.03;;;;;;;13.21;65.63;95162.66;5033287;28;20281;-70
2023/05/04 06:18:20;;;;;;;6.93;6.22;;;;;;;13.24;65.10;95162.31;5026104;28;20300;-69
2023/05/04 06:20:46;;;;;;;7.85;6.22;;;;;;;13.37;63.77;95167.97;5022631;28;20240;-69
2023/05/04 06:23:13;;;;;;;6.50;5.57;;;;;;;13.36;64.45;95165.47;5037648;28;20299;-70
2023/05/04 06:25:39;;;;;;;6.60;5.75;;;;;;;13.34;64.59;95168.31;5029404;28;20221;-70
2023/05/04 06:28:05;;;;;;;6.70;5.45;;;;;;;13.44;63.40;95168.13;5031392;28;20248;-69
2023/05/04 06:30:30;;;;;;;5.75;4.97;;;;;;;13.34;64.63;95168.31;5021190;28;20214;-70
2023/05/04 06:32:56;;;;;;;6.93;5.90;;;;;;;13.21;64.37;95168.75;5030976;28;20605;-70
2023/05/04 06:35:21;;;;;;;5.82;4.60;;;;;;;13.33;63.61;95165.81;5015670;28;20230;-70
2023/05/04 06:37:47;;;;;;;4.78;4.32;;;;;;;13.42;63.48;95165.66;5032617;28;20226;-69
2023/05/04 06:40:14;;;;;;;5.65;4.47;;;;;;;13.50;62.46;95167.47;5022297;28;20197;-69
2023/05/04 06:42:39;;;;;;;4.80;4.20;;;;;;;13.56;61.44;95169.44;5027589;28;20182;-70
2023/05/04 06:45:08;;;;;;;6.00;4.35;;;;;;;13.59;61.79;95163.00;5031226;28;20220;-70
2023/05/04 06:47:36;;;;;;;5.45;4.95;;;;;;;13.30;62.38;95169.59;5026340;28;20299;-69
2023/05/04 06:50:10;;;;;;;7.40;6.32;;;;;;;13.32;63.04;95172.91;5030951;28;20225;-70
2023/05/04 06:52:38;;;;;;;5.85;4.82;;;;;;;13.24;63.12;95173.69;5019997;28;20218;-70
2023/05/04 06:55:05;;;;;;;5.65;4.35;;;;;;;13.10;63.10;95179.63;5027887;28;20192;-68
2023/05/04 06:57:31;;;;;;;5.43;4.88;;;;;;;13.07;64.29;95176.47;5032293;28;20229;-70
2023/05/04 06:59:56;;;;;;;5.63;4.70;;;;;;;12.87;64.38;95184.69;5028592;28;20267;-69
2023/05/04 07:02:22;;;;;;;4.85;4.45;;;;;;;12.83;63.52;95174.63;5021405;28;20237;-69
2023/05/04 07:04:48;;;;;;;5.40;4.85;;;;;;;12.80;62.99;95176.63;5027682;28;20242;-69
2023/05/04 07:07:13;;;;;;;5.28;4.78;;;;;;;12.88;62.86;95172.31;5031882;28;20185;-69
2023/05/04 07:09:40;;;;;;;5.28;4.78;;;;;;;12.74;62.97;95171.97;5028512;28;20213;-69
2023/05/04 07:12:06;;;;;;;5.82;5.28;;;;;;;12.76;63.68;95169.19;5030725;28;20230;-69
2023/05/04 07:14:31;;;;;;;5.85;5.28;;;;;;;12.55;63.88;95177.53;5024127;28;20221;-71
2023/05/04 07:16:56;;;;;;;5.85;4.97;;;;;;;12.71;63.45;95176.75;5033998;28;20217;-71
2023/05/04 07:19:22;;;;;;;7.20;5.78;;;;;;;12.66;63.92;95164.03;5028150;28;20185;-69
2023/05/04 07:21:47;;;;;;;5.55;5.13;;;;;;;12.50;64.32;95171.91;5030762;28;20198;-71
2023/05/04 07:24:13;;;;;;;6.60;5.85;;;;;;;12.60;64.13;95177.06;5041390;28;20233;-72
2023/05/04 07:26:39;;;;;;;6.13;5.53;;;;;;;12.62;64.01;95178.53;5021881;28;20225;-71
2023/05/04 07:29:04;;;;;;;6.35;5.50;;;;;;;12.67;63.25;95175.41;5035999;28;20229;-72
2023/05/04 07:31:29;;;;;;;8.75;6.65;;;;;;;12.73;62.88;95178.25;5028539;28;20221;-69
2023/05/04 07:33:55;;;;;;;6.75;6.15;;;;;;;12.72;63.30;95183.66;5029579;28;20178;-69
2023/05/04 07:36:22;;;;;;;8.65;5.60;;;;;;;12.67;63.87;95180.69;5031163;28;20213;-71
2023/05/04 07:38:48;;;;;;;6.80;6.20;;;;;;;12.58;64.39;95177.19;5024663;28;20228;-69
2023/05/04 07:41:13;;;;;;;7.10;6.43;;;;;;;12.70;65.00;95186.47;5023292;28;20225;-71
2023/05/04 07:43:39;;;;;;;7.53;6.82;;;;;;;12.61;64.96;95189.25;5023048;28;20229;-72
2023/05/04 07:46:04;;;;;;;6.93;6.22;;;;;;;12.52;64.73;95180.47;5028710;28;20183;-71
2023/05/04 07:48:31;;;;;;;7.57;6.72;;;;;;;12.39;65.11;95180.91;5029551;28;20225;-71
2023/05/04 07:50:57;;;;;;;8.88;7.78;;;;;;;12.54;64.82;95184.63;5032481;28;20355;-72
2023/05/04 07:53:25;;;;;;;7.43;6.72;;;;;;;12.61;64.36;95192.69;5024662;28;20225;-70
2023/05/04 07:55:53;;;;;;;8.73;7.35;;;;;;;12.56;65.37;95187.94;5035360;28;20218;-72
2023/05/04 07:58:18;;;;;;;8.35;7.50;;;;;;;12.68;64.86;95206.91;5029845;28;20984;-71
2023/05/04 08:00:44;;;;;;;7.85;7.15;;;;;;;12.41;65.75;95189.50;5031211;28;20262;-71
2023/05/04 08:03:10;;;;;;;7.70;6.90;;;;;;;12.48;65.43;95198.44;5032030;28;20324;-71
2023/05/04 08:05:35;;;;;;;8.70;7.90;;;;;;;12.56;65.42;95192.34;5028129;28;20336;-71
2023/05/04 08:08:01;;;;;;;8.57;7.70;;;;;;;12.59;65.98;95205.25;5033993;28;20214;-70
2023/05/04 08:10:27;;;;;;;8.38;7.50;;;;;;;12.63;64.95;95203.94;5033627;28;20189;-71
2023/05/04 08:12:53;;;;;;;7.22;6.60;;;;;;;12.64;65.11;95210.03;5044418;28;20202;-69
2023/05/04 08:15:19;;;;;;;6.88;6.28;;;;;;;12.61;65.16;95203.25;5036529;28;20239;-71
2023/05/04 08:17:44;;;;;;;7.32;6.63;;;;;;;12.75;64.27;95204.44;5026104;28;20216;-71
2023/05/04 08:20:10;;;;;;;7.80;7.10;;;;;;;12.65;64.92;95214.34;5030813;28;20727;-70
2023/05/04 08:22:36;;;;;;;7.70;6.90;;;;;;;12.58;64.38;95203.56;5032163;28;20278;-71
2023/05/04 08:25:02;;;;;;;6.63;6.03;;;;;;;12.51;64.42;95203.41;5027131;28;20206;-71
2023/05/04 08:27:27;;;;;;;7.80;7.10;;;;;;;12.64;65.34;95212.66;5030209;28;20267;-71
2023/05/04 08:29:53;;;;;;;7.78;7.03;;;;;;;12.75;64.76;95200.03;5042763;28;20228;-72
2023/05/04 08:32:18;;;;;;;7.47;6.80;;;;;;;12.79;64.60;95201.34;5032728;28;20221;-72
2023/05/04 08:34:43;;;;;;;7.82;7.13;;;;;;;12.90;64.12;95212.59;5033266;28;20221;-71
2023/05/04 08:37:09;;;;;;;8.13;7.32;;;;;;;12.86;64.00;95206.81;5033245;28;20182;-71
2023/05/04 08:39:34;;;;;;;9.93;7.88;;;;;;;12.96;63.73;95204.88;5036744;28;20319;-72
2023/05/04 08:42:01;;;;;;;7.88;7.13;;;;;;;13.03;64.12;95207.66;5033654;28;20218;-72
2023/05/04 08:44:28;;;;;;;7.88;7.13;;;;;;;13.06;63.42;95207.34;5028496;28;20306;-72
2023/05/04 08:46:55;;;;;;;7.82;6.78;;;;;;;12.99;63.58;95201.91;5028602;28;20272;-71
2023/05/04 08:49:23;;;;;;;7.18;6.55;;;;;;;13.04;63.03;95204.03;5032384;28;20239;-72
2023/05/04 08:51:49;;;;;;;8.32;7.53;;;;;;;13.09;63.80;95199.09;5024874;28;20189;-70
2023/05/04 08:54:15;;;;;;;8.52;7.72;;;;;;;13.11;64.07;95199.75;5027446;28;20218;-71
2023/05/04 08:56:41;;;;;;;12.63;8.23;;;;;;;13.36;64.54;95205.91;5047379;28;20272;-72
2023/05/04 08:59:10;;;;;;;10.98;7.53;;;;;;;13.58;63.62;95204.47;5030569;28;20217;-69
2023/05/04 09:01:37;;;;;;;8.15;7.35;;;;;;;13.66;62.94;95199.16;5027055;28;20232;-69
2023/05/04 09:04:04;;;;;;;8.68;6.20;;;;;;;13.71;60.77;95209.22;5045728;28;20281;-69
2023/05/04 09:06:30;;;;;;;7.07;6.38;;;;;;;13.85;59.97;95202.47;5025904;28;20249;-69
2023/05/04 09:08:56;;;;;;;6.95;6.25;;;;;;;14.05;59.31;95209.00;5034870;28;20240;-71
2023/05/04 09:11:22;;;;;;;6.50;5.90;;;;;;;13.96;59.43;95209.22;5034632;28;20221;-71
2023/05/04 09:13:47;;;;;;;6.45;5.85;;;;;;;13.97;58.63;95209.03;5033656;28;20236;-70
2023/05/04 09:16:15;;;;;;;5.82;5.32;;;;;;;14.02;57.81;95206.72;5027221;28;20190;-71
2023/05/04 09:18:42;;;;;;;7.57;6.93;;;;;;;14.01;58.65;95207.72;5031792;28;20185;-71
2023/05/04 09:21:11;;;;;;;7.50;6.78;;;;;;;14.00;58.36;95218.44;5036357;28;20261;-71
2023/05/04 09:23:49;;;;;;;8.07;7.28;;;;;;;13.88;59.11;95213.50;5032824;28;20292;-71
2023/05/04 09:26:29;;;;;;;7.97;7.28;;;;;;;13.96;57.81;95210.03;5019752;28;20222;-72
2023/05/04 09:28:55;;;;;;;7.53;6.75;;;;;;;13.85;58.14;95213.03;5023429;28;20222;-71
2023/05/04 09:31:20;;;;;;;7.40;6.72;;;;;;;13.75;58.72;95210.53;5027716;28;20736;-71
2023/05/04 09:33:46;;;;;;;7.30;6.60;;;;;;;13.68;58.42;95206.91;5031418;28;20181;-71
2023/05/04 09:36:13;;;;;;;8.68;7.30;;;;;;;13.57;58.94;95208.06;5030041;28;20240;-70
2023/05/04 09:38:40;;;;;;;9.68;8.30;;;;;;;13.71;59.33;95211.03;5033874;28;20221;-70
2023/05/04 09:41:05;;;;;;;10.35;9.35;;;;;;;13.75;59.38;95210.53;5031200;28;20217;-70
2023/05/04 09:43:39;;;;;;;13.90;9.55;;;;;;;13.67;60.28;95202.63;5023077;28;20221;-70
2023/05/04 09:46:04;;;;;;;16.95;9.60;;;;;;;13.74;60.41;95206.25;5034887;28;20178;-70
2023/05/04 09:48:31;;;;;;;10.38;9.20;;;;;;;13.87;59.81;95197.81;5035881;28;20213;-71
2023/05/04 09:50:58;;;;;;;11.05;9.95;;;;;;;13.95;59.53;95192.50;5033606;28;20253;-71
2023/05/04 09:53:36;;;;;;;11.05;10.02;;;;;;;13.91;60.42;95188.56;5027271;28;20228;-71
2023/05/04 09:56:04;;;;;;;12.88;11.07;;;;;;;13.92;60.15;95192.84;5032375;28;20386;-71
2023/05/04 09:58:30;;;;;;;12.87;10.67;;;;;;;14.06;59.14;95194.81;5033380;28;20455;-71
2023/05/04 10:00:57;;;;;;;11.02;9.65;;;;;;;14.13;59.52;95195.78;5034258;28;20266;-71
2023/05/04 10:03:25;;;;;;;13.07;10.38;;;;;;;14.04;59.39;95193.34;5030333;28;20300;-70
2023/05/04 10:05:50;;;;;;;12.88;10.68;;;;;;;14.09;59.59;95194.47;5028789;28;20245;-70
2023/05/04 10:08:16;;;;;;;15.95;11.90;;;;;;;14.08;59.41;95189.34;5036580;28;20225;-71
2023/05/04 10:10:42;;;;;;;10.82;9.20;;;;;;;14.12;59.25;95185.38;5024693;28;20287;-71
2023/05/04 10:13:08;;;;;;;13.70;10.02;;;;;;;14.12;58.72;95188.84;5041950;28;20193;-71
2023/05/04 10:15:38;;;;;;;10.52;9.57;;;;;;;14.24;58.47;95185.84;5027809;28;20301;-71
2023/05/04 10:18:25;;;;;;;10.65;9.07;;;;;;;14.29;57.93;95191.44;5032290;28;20247;-71
2023/05/04 10:21:14;;;;;;;13.27;11.00;;;;;;;14.43;58.38;95179.31;5026635;28;20225;-71
2023/05/04 10:24:01;;;;;;;13.63;12.20;;;;;;;14.33;58.39;95171.59;5022423;28;20230;-71
2023/05/04 10:26:41;;;;;;;14.10;12.70;;;;;;;14.62;57.92;95178.09;5019837;28;20231;-71
2023/05/04 10:29:20;;;;;;;11.18;10.07;;;;;;;14.51;58.40;95177.47;5039938;28;20209;-71
2023/05/04 10:31:46;;;;;;;11.52;10.43;;;;;;;14.20;58.09;95185.34;5032748;28;20217;-71
2023/05/04 10:34:22;;;;;;;12.70;11.43;;;;;;;14.36;58.92;95168.59;5029351;28;20211;-71
2023/05/04 10:36:48;;;;;;;10.05;9.07;;;;;;;14.51;57.44;95168.69;5031459;28;20224;-72
2023/05/04 10:39:17;;;;;;;12.68;10.65;;;;;;;14.62;56.93;95176.31;5043396;28;20257;-71
2023/05/04 10:41:55;;;;;;;13.90;10.98;;;;;;;14.87;57.34;95170.88;5033056;28;20224;-71
2023/05/04 10:44:21;;;;;;;13.95;11.70;;;;;;;14.88;56.38;95172.50;5040359;28;20221;-72
2023/05/04 10:46:55;;;;;;;13.05;11.07;;;;;;;14.96;57.19;95170.63;5031765;28;20345;-72
2023/05/04 10:49:21;;;;;;;12.35;10.43;;;;;;;14.93;55.78;95167.53;5030514;28;20275;-72
2023/05/04 10:51:47;;;;;;;12.35;11.25;;;;;;;14.80;57.05;95168.09;5032454;28;20269;-72
2023/05/04 10:54:18;;;;;;;13.60;11.45;;;;;;;14.88;56.63;95172.50;5045538;28;20292;-72
2023/05/04 10:56:43;;;;;;;13.02;11.73;;;;;;;14.83;57.02;95166.91;5031899;28;20217;-71
2023/05/04 10:59:09;;;;;;;14.07;11.95;;;;;;;14.62;57.35;95172.81;5028191;28;20248;-71
2023/05/04 11:01:44;;;;;;;14.23;12.73;;;;;;;14.48;57.75;95172.50;5025336;28;20229;-71
2023/05/04 11:04:22;;;;;;;14.25;12.75;;;;;;;14.70;57.47;95178.06;5030769;28;20215;-71
2023/05/04 11:07:07;;;;;;;12.95;11.75;;;;;;;14.46;56.65;95171.88;5029828;28;20281;-71
2023/05/04 11:09:43;;;;;;;16.48;14.75;;;;;;;14.45;57.17;95167.56;5032846;28;20304;-72
2023/05/04 11:12:09;;;;;;;14.88;12.25;;;;;;;14.51;57.13;95171.34;5021742;28;20218;-72
2023/05/04 11:14:40;;;;;;;14.30;12.52;;;;;;;14.54;56.61;95171.88;5021296;28;20293;-72
2023/05/04 11:17:09;;;;;;;13.35;12.05;;;;;;;14.43;57.20;95174.03;5023930;28;20232;-71
2023/05/04 11:19:35;;;;;;;15.70;13.95;;;;;;;14.41;57.79;95165.47;5029593;28;20226;-72
2023/05/04 11:22:01;;;;;;;15.88;14.25;;;;;;;14.41;57.96;95176.84;5029967;28;20178;-72
2023/05/04 11:24:50;;;;;;;16.00;14.32;;;;;;;14.30;57.57;95174.56;5018712;28;20248;-72